createdAt,value
2022-08-09T00:02:28.294Z,8.00
2022-08-09T00:05:03.591Z,6.68
2022-08-09T00:07:44.416Z,13.55
2022-08-09T00:10:18.002Z,5.57
2022-08-09T00:12:52.601Z,6.03
2022-08-09T00:15:35.353Z,6.95
2022-08-09T00:18:10.802Z,4.70
2022-08-09T00:20:42.374Z,6.97
2022-08-09T00:23:55.324Z,7.03
2022-08-09T00:26:05.391Z,8.13
2022-08-09T00:28:34.449Z,7.93
2022-08-09T00:31:50.428Z,6.60
2022-08-09T00:33:51.979Z,7.55
2022-08-09T00:36:20.428Z,6.53
2022-08-09T00:38:50.659Z,6.28
2022-08-09T00:44:10.934Z,7.70
2022-08-09T00:44:13.884Z,5.30
2022-08-09T00:46:57.871Z,8.02
2022-08-09T00:49:32.451Z,8.10
2022-08-09T00:52:05.394Z,6.25
2022-08-09T00:54:36.391Z,12.00
2022-08-09T00:57:10.122Z,8.82
2022-08-09T00:59:46.382Z,7.72
2022-08-09T01:02:21.341Z,8.40
2022-08-09T01:05:03.478Z,8.05
2022-08-09T01:08:00.049Z,7.88
2022-08-09T01:10:31.612Z,7.30
2022-08-09T01:13:03.373Z,7.60
2022-08-09T01:15:41.055Z,6.75
2022-08-09T01:18:30.247Z,5.32
2022-08-09T01:21:14.140Z,5.03
2022-08-09T01:24:01.902Z,10.82
2022-08-09T01:26:52.969Z,7.93
2022-08-09T01:29:29.420Z,10.85
2022-08-09T01:32:31.790Z,6.07
2022-08-09T01:34:59.880Z,8.88
2022-08-09T01:38:06.316Z,6.03
2022-08-09T01:40:28.630Z,7.07
2022-08-09T01:42:56.997Z,8.13
2022-08-09T01:45:25.250Z,6.45
2022-08-09T01:47:52.668Z,10.02
2022-08-09T01:50:29.994Z,9.68
2022-08-09T01:53:19.324Z,9.60
2022-08-09T01:55:47.681Z,11.52
2022-08-09T01:58:16.006Z,6.38
2022-08-09T02:00:46.011Z,9.18
2022-08-09T02:03:15.439Z,7.40
2022-08-09T02:05:53.610Z,8.75
2022-08-09T02:08:39.346Z,7.57
2022-08-09T02:11:20.113Z,10.43
2022-08-09T02:14:06.586Z,13.80
2022-08-09T02:16:59.307Z,8.95
2022-08-09T02:19:24.074Z,11.60
2022-08-09T02:22:08.397Z,7.63
2022-08-09T02:24:37.941Z,10.65
2022-08-09T02:27:09.640Z,9.45
2022-08-09T02:29:43.376Z,9.93
2022-08-09T02:32:12.530Z,12.23
2022-08-09T02:34:52.031Z,9.32
2022-08-09T02:37:31.747Z,10.80
2022-08-09T02:40:09.447Z,10.38
2022-08-09T02:42:39.614Z,11.73
2022-08-09T02:45:12.335Z,9.05
2022-08-09T02:47:57.674Z,9.38
2022-08-09T02:50:31.052Z,9.45
2022-08-09T02:53:03.770Z,8.15
2022-08-09T02:55:46.193Z,9.43
2022-08-09T02:58:36.062Z,12.68
2022-08-09T03:01:07.965Z,10.93
2022-08-09T03:04:16.553Z,7.15
2022-08-09T03:06:27.686Z,9.43
2022-08-09T03:08:55.783Z,15.57
2022-08-09T03:12:04.442Z,12.07
2022-08-09T03:14:11.871Z,9.57
2022-08-09T03:16:45.236Z,10.38
2022-08-09T03:19:57.812Z,9.45
2022-08-09T03:22:05.362Z,7.88
2022-08-09T03:24:51.889Z,6.83
2022-08-09T03:27:21.611Z,11.00
2022-08-09T03:29:57.603Z,11.02
2022-08-09T03:32:31.438Z,8.15
2022-08-09T03:34:59.564Z,9.48
2022-08-09T03:37:56.492Z,8.32
2022-08-09T03:40:16.983Z,12.25
2022-08-09T03:42:45.556Z,6.63
2022-08-09T03:45:13.660Z,8.82
2022-08-09T03:47:46.418Z,7.07
2022-08-09T03:50:18.822Z,10.45
2022-08-09T03:52:57.943Z,8.77
2022-08-09T03:55:26.637Z,10.35
2022-08-09T03:58:06.263Z,12.25
2022-08-09T04:00:42.946Z,8.27
2022-08-09T04:03:11.820Z,14.30
2022-08-09T04:05:46.736Z,11.75
2022-08-09T04:08:13.317Z,8.18
2022-08-09T04:10:40.027Z,6.38
2022-08-09T04:13:11.510Z,10.00
2022-08-09T04:16:17.563Z,11.93
2022-08-09T04:18:25.798Z,10.82
2022-08-09T04:20:55.490Z,14.63
2022-08-09T04:23:24.896Z,9.32
2022-08-09T04:25:54.304Z,8.88
2022-08-09T04:28:34.293Z,8.57
2022-08-09T04:31:08.093Z,10.05
2022-08-09T04:33:52.429Z,10.68
2022-08-09T04:36:21.414Z,11.15
2022-08-09T04:38:50.146Z,9.27
2022-08-09T04:41:16.703Z,8.90
2022-08-09T04:43:53.803Z,13.65
2022-08-09T04:46:37.793Z,16.20
2022-08-09T04:49:17.604Z,11.13
2022-08-09T04:51:59.103Z,11.35
2022-08-09T04:54:25.909Z,11.60
2022-08-09T04:56:52.791Z,13.02
2022-08-09T04:59:22.625Z,14.43
2022-08-09T05:01:49.419Z,13.45
2022-08-09T05:04:19.363Z,13.73
2022-08-09T05:06:46.049Z,13.38
2022-08-09T05:09:17.491Z,13.45
2022-08-09T05:11:44.354Z,16.73
2022-08-09T05:14:10.940Z,14.25
2022-08-09T05:16:58.185Z,11.23
2022-08-09T05:19:44.675Z,16.98
2022-08-09T05:23:50.409Z,20.25
2022-08-09T05:25:01.101Z,11.52
2022-08-09T05:27:31.054Z,13.65
2022-08-09T05:29:57.809Z,10.93
2022-08-09T05:32:26.144Z,13.75
2022-08-09T05:34:56.824Z,14.30
2022-08-09T05:37:23.820Z,14.60
2022-08-09T05:39:52.402Z,19.67
2022-08-09T05:42:21.526Z,16.85
2022-08-09T05:44:52.168Z,12.43
2022-08-09T05:47:21.513Z,16.60
2022-08-09T05:50:25.156Z,13.32
2022-08-09T05:55:07.190Z,12.80
2022-08-09T05:57:55.120Z,11.50
2022-08-09T06:00:22.528Z,11.63
2022-08-09T06:02:49.355Z,10.25
2022-08-09T06:05:50.144Z,11.02
2022-08-09T06:08:09.076Z,12.68
2022-08-09T06:10:38.593Z,14.68
2022-08-09T06:13:18.594Z,17.45
2022-08-09T06:15:51.561Z,10.30
2022-08-09T06:18:25.273Z,14.02
2022-08-09T06:20:57.803Z,17.10
2022-08-09T06:23:58.634Z,11.68
2022-08-09T06:26:14.499Z,10.80
2022-08-09T06:28:43.252Z,17.92
2022-08-09T06:31:10.567Z,14.77
2022-08-09T06:33:41.715Z,13.38
2022-08-09T06:36:11.863Z,14.13
2022-08-09T06:38:42.988Z,19.30
2022-08-09T06:43:47.157Z,21.23
2022-08-09T06:46:39.065Z,20.60
2022-08-09T06:49:01.451Z,20.58
2022-08-09T06:51:29.202Z,16.95
2022-08-09T06:54:01.052Z,21.65
2022-08-09T06:56:30.927Z,26.75
2022-08-09T07:00:48.977Z,26.58
2022-08-09T07:01:54.423Z,19.02
2022-08-09T07:04:30.460Z,24.55
2022-08-09T07:07:00.373Z,16.80
2022-08-09T07:09:55.439Z,17.77
2022-08-09T07:12:17.419Z,21.77
2022-08-09T07:14:51.461Z,17.75
2022-08-09T07:17:19.905Z,20.30
2022-08-09T07:19:48.097Z,17.40
2022-08-09T07:22:18.314Z,30.17
2022-08-09T07:24:49.647Z,32.85
2022-08-09T07:27:27.153Z,26.15
2022-08-09T07:30:02.623Z,23.98
2022-08-09T07:32:33.195Z,25.45
2022-08-09T07:35:08.014Z,29.17
2022-08-09T07:37:43.649Z,26.30
2022-08-09T07:40:17.451Z,28.25
2022-08-09T07:42:54.524Z,22.25
2022-08-09T07:45:37.445Z,18.45
2022-08-09T07:48:08.172Z,21.13
2022-08-09T07:50:53.132Z,17.73
2022-08-09T07:54:04.522Z,27.52
2022-08-09T07:56:27.272Z,24.25
2022-08-09T07:58:54.824Z,28.83
2022-08-09T08:01:21.762Z,29.58
2022-08-09T08:03:55.403Z,17.75
2022-08-09T08:06:22.478Z,16.77
2022-08-09T08:09:04.532Z,18.45
2022-08-09T08:12:25.170Z,17.38
2022-08-09T08:17:00.373Z,27.02
2022-08-09T08:19:33.966Z,15.38
2022-08-09T08:22:02.127Z,19.50
2022-08-09T08:24:34.339Z,14.55
2022-08-09T08:27:16.735Z,18.10
2022-08-09T08:29:48.807Z,15.73
2022-08-09T08:32:18.927Z,15.27
2022-08-09T08:34:52.039Z,11.60
2022-08-09T08:37:22.038Z,8.90
2022-08-09T08:39:51.821Z,6.30
2022-08-09T08:42:18.553Z,4.35
2022-08-09T08:44:57.801Z,5.05
2022-08-09T08:47:27.584Z,6.47
2022-08-09T08:49:57.472Z,4.28
2022-08-09T08:55:23.251Z,7.85
2022-08-09T08:57:57.541Z,6.32
2022-08-09T09:00:29.837Z,8.88
2022-08-09T09:03:08.835Z,2.67
2022-08-09T09:06:00.909Z,2.10
2022-08-09T09:08:38.061Z,2.58
2022-08-09T09:11:13.630Z,5.00
2022-08-09T09:13:55.904Z,5.20
2022-08-09T09:16:30.341Z,3.70
2022-08-09T09:22:07.715Z,5.38
2022-08-09T09:24:49.102Z,4.30
2022-08-09T09:28:03.314Z,4.57
2022-08-09T09:30:40.220Z,9.35
2022-08-09T09:33:16.851Z,8.60
2022-08-09T09:36:03.671Z,3.05
2022-08-09T09:38:48.543Z,5.03
2022-08-09T09:41:32.508Z,5.00
2022-08-09T09:44:11.088Z,9.07
2022-08-09T09:46:45.614Z,4.60
2022-08-09T09:49:18.954Z,6.93
2022-08-09T09:52:02.535Z,7.30
2022-08-09T09:54:37.977Z,7.57
2022-08-09T09:58:03.859Z,11.80
2022-08-09T10:00:26.430Z,5.88
2022-08-09T10:02:53.555Z,6.10
2022-08-09T10:05:27.119Z,7.40
2022-08-09T10:08:25.952Z,6.50
2022-08-09T10:10:54.985Z,6.47
2022-08-09T10:13:42.824Z,6.53
2022-08-09T10:16:58.313Z,4.40
2022-08-09T10:18:59.983Z,8.27
2022-08-09T10:21:27.642Z,8.95
2022-08-09T10:23:56.448Z,10.35
2022-08-09T10:26:26.703Z,4.30
2022-08-09T10:29:20.973Z,9.55
2022-08-09T10:34:32.764Z,7.25
2022-08-09T10:37:01.235Z,4.10
2022-08-09T10:39:29.567Z,2.38
2022-08-09T10:41:56.219Z,6.45
2022-08-09T10:44:26.244Z,7.55
2022-08-09T10:48:19.518Z,6.40
2022-08-09T10:50:30.730Z,6.00
2022-08-09T10:53:05.561Z,5.18
2022-08-09T10:55:58.538Z,4.53
2022-08-09T10:58:33.793Z,4.00
2022-08-09T11:03:06.875Z,5.90
2022-08-09T11:04:29.636Z,4.60
2022-08-09T11:06:59.770Z,5.78
2022-08-09T11:09:47.727Z,5.15
2022-08-09T11:12:20.273Z,9.27
2022-08-09T11:14:54.452Z,5.38
2022-08-09T11:17:22.696Z,3.25
2022-08-09T11:20:11.909Z,4.25
2022-08-09T11:22:58.412Z,7.88
2022-08-09T11:25:47.449Z,4.75
2022-08-09T11:28:35.183Z,5.00
2022-08-09T11:31:43.410Z,8.15
2022-08-09T11:34:24.859Z,5.03
2022-08-09T11:39:18.602Z,6.32
2022-08-09T11:41:46.709Z,5.68
2022-08-09T11:44:15.728Z,6.10
2022-08-09T11:47:00.801Z,4.80
2022-08-09T11:50:52.179Z,6.15
2022-08-09T11:53:15.990Z,5.15
2022-08-09T11:55:52.369Z,9.18
2022-08-09T11:58:30.350Z,6.15
2022-08-09T12:01:08.573Z,9.70
2022-08-09T12:03:56.067Z,4.30
2022-08-09T12:06:32.596Z,7.90
2022-08-09T12:09:05.906Z,5.50
2022-08-09T12:12:02.647Z,8.77
2022-08-09T12:14:40.777Z,4.60
2022-08-09T12:17:27.502Z,4.13
2022-08-09T12:20:12.346Z,3.17
2022-08-09T12:22:44.847Z,10.38
2022-08-09T12:25:15.200Z,7.72
2022-08-09T12:29:12.463Z,7.00
2022-08-09T12:30:36.731Z,5.15
2022-08-09T12:33:05.652Z,3.75
2022-08-09T12:35:41.057Z,9.32
2022-08-09T12:38:29.621Z,4.72
2022-08-09T12:41:04.347Z,11.20
2022-08-09T12:44:05.673Z,3.97
2022-08-09T12:46:21.718Z,9.35
2022-08-09T12:48:52.207Z,4.97
2022-08-09T12:51:52.294Z,2.60
2022-08-09T12:54:08.229Z,5.28
2022-08-09T12:56:51.240Z,12.20
2022-08-09T12:59:22.963Z,5.68
2022-08-09T13:02:09.302Z,6.45
2022-08-09T13:04:38.567Z,6.07
2022-08-09T13:07:14.083Z,2.70
2022-08-09T13:09:43.222Z,5.05
2022-08-09T13:12:10.254Z,3.10
2022-08-09T13:14:47.342Z,9.50
2022-08-09T13:17:43.926Z,6.30
2022-08-09T13:20:14.288Z,4.55
2022-08-09T13:23:01.306Z,5.75
2022-08-09T13:25:52.806Z,3.50
2022-08-09T13:28:34.627Z,6.38
2022-08-09T13:32:13.750Z,3.72
2022-08-09T13:33:54.651Z,3.28
2022-08-09T13:36:38.449Z,2.95
2022-08-09T13:41:17.151Z,7.80
2022-08-09T13:42:14.014Z,3.22
2022-08-09T13:44:43.195Z,3.67
2022-08-09T13:47:27.737Z,3.92
2022-08-09T13:50:02.773Z,3.55
2022-08-09T13:52:30.873Z,5.03
2022-08-09T13:55:00.843Z,3.75
2022-08-09T13:57:35.492Z,3.25
2022-08-09T14:00:12.752Z,6.50
2022-08-09T14:02:42.596Z,3.40
2022-08-09T14:05:57.013Z,2.92
2022-08-09T14:08:17.301Z,4.57
2022-08-09T14:10:50.492Z,8.20
2022-08-09T14:14:14.896Z,3.40
2022-08-09T14:16:13.720Z,4.85
2022-08-09T14:18:45.347Z,4.55
2022-08-09T14:21:17.600Z,4.95
2022-08-09T14:23:54.725Z,4.80
2022-08-09T14:26:25.287Z,5.95
2022-08-09T14:28:52.250Z,4.68
2022-08-09T14:31:19.079Z,6.20
2022-08-09T14:33:52.212Z,5.47
2022-08-09T14:36:21.509Z,5.45
2022-08-09T14:38:52.496Z,6.65
2022-08-09T14:41:39.692Z,4.32
2022-08-09T14:44:09.564Z,3.58
2022-08-09T14:47:04.674Z,2.13
2022-08-09T14:49:26.278Z,3.80
2022-08-09T14:51:58.833Z,3.17
2022-08-09T14:54:27.854Z,4.20
2022-08-09T14:56:57.948Z,2.00
2022-08-09T14:59:27.391Z,3.47
2022-08-09T15:01:55.902Z,7.80
2022-08-09T15:04:23.610Z,12.60
2022-08-09T15:06:51.610Z,2.47
2022-08-09T15:10:03.105Z,8.75
2022-08-09T15:12:07.841Z,2.33
2022-08-09T15:14:38.512Z,17.70
2022-08-09T15:17:09.595Z,43.78
2022-08-09T15:19:37.054Z,6.63
2022-08-09T15:22:26.168Z,11.50
2022-08-09T15:24:53.582Z,6.90
2022-08-09T15:27:21.463Z,3.47
2022-08-09T15:30:56.876Z,5.20
2022-08-09T15:32:35.566Z,4.15
2022-08-09T15:35:02.387Z,2.75
2022-08-09T15:37:56.794Z,2.83
2022-08-09T15:40:33.842Z,3.70
2022-08-09T15:43:01.941Z,5.45
2022-08-09T15:45:30.076Z,2.60
2022-08-09T15:48:05.137Z,2.50
2022-08-09T15:50:34.691Z,3.97
2022-08-09T15:53:17.814Z,3.75
2022-08-09T15:56:04.681Z,2.75
2022-08-09T15:58:33.017Z,6.15
2022-08-09T16:00:59.792Z,6.13
2022-08-09T16:03:38.364Z,4.43
2022-08-09T16:06:32.673Z,2.83
2022-08-09T16:08:56.127Z,5.80
2022-08-09T16:11:22.973Z,5.18
2022-08-09T16:14:04.046Z,2.75
2022-08-09T16:16:37.185Z,4.45
2022-08-09T16:19:06.222Z,5.50
2022-08-09T16:21:35.767Z,3.53
2022-08-09T16:24:04.810Z,6.90
2022-08-09T16:26:34.456Z,2.42
2022-08-09T16:29:10.407Z,2.25
2022-08-09T16:32:19.293Z,2.45
2022-08-09T16:34:54.447Z,4.82
2022-08-09T16:37:18.440Z,2.30
2022-08-09T16:39:54.854Z,10.68
2022-08-09T16:42:33.523Z,5.65
2022-08-09T16:45:00.196Z,3.75
2022-08-09T16:48:38.160Z,4.75
2022-08-09T16:50:30.042Z,4.35
2022-08-09T16:52:59.952Z,4.90
2022-08-09T16:55:26.599Z,4.95
2022-08-09T16:58:10.113Z,3.53
2022-08-09T17:00:38.765Z,3.22
2022-08-09T17:03:21.135Z,3.42
2022-08-09T17:06:08.308Z,7.10
2022-08-09T17:09:02.795Z,7.72
2022-08-09T17:11:40.239Z,4.47
2022-08-09T17:14:26.312Z,5.32
2022-08-09T17:16:56.890Z,3.85
2022-08-09T17:19:27.728Z,10.73
2022-08-09T17:22:14.522Z,5.35
2022-08-09T17:24:41.394Z,5.20
2022-08-09T17:27:15.498Z,2.70
2022-08-09T17:29:45.530Z,4.78
2022-08-09T17:32:15.754Z,2.17
2022-08-09T17:35:07.388Z,2.83
2022-08-09T17:37:29.901Z,6.68
2022-08-09T17:39:56.794Z,3.22
2022-08-09T17:42:42.030Z,8.45
2022-08-09T17:45:23.709Z,5.03
2022-08-09T17:48:02.491Z,2.83
2022-08-09T17:50:37.167Z,3.28
2022-08-09T17:53:19.288Z,4.20
2022-08-09T17:55:50.220Z,4.13
2022-08-09T17:58:19.171Z,4.70
2022-08-09T18:00:48.083Z,10.23
2022-08-09T18:03:15.381Z,6.20
2022-08-09T18:05:44.745Z,6.65
2022-08-09T18:08:13.363Z,5.55
2022-08-09T18:10:45.963Z,5.78
2022-08-09T18:13:39.591Z,3.72
2022-08-09T18:16:09.011Z,3.60
2022-08-09T18:18:43.293Z,3.38
2022-08-09T18:21:23.011Z,4.90
2022-08-09T18:24:09.886Z,4.70
2022-08-09T18:26:46.609Z,5.47
2022-08-09T18:30:42.689Z,5.10
2022-08-09T18:32:03.090Z,6.38
2022-08-09T18:34:31.820Z,2.97
2022-08-09T18:36:58.720Z,9.07
2022-08-09T18:39:31.923Z,2.83
2022-08-09T18:42:01.056Z,3.95
2022-08-09T18:44:27.880Z,5.03
2022-08-09T18:47:07.839Z,6.47
2022-08-09T18:49:41.414Z,2.83
2022-08-09T18:52:12.117Z,3.33
2022-08-09T18:54:49.780Z,2.53
2022-08-09T18:57:22.133Z,4.80
2022-08-09T18:59:54.381Z,3.38
2022-08-09T19:02:30.566Z,3.00
2022-08-09T19:05:14.237Z,3.42
2022-08-09T19:07:59.015Z,3.47
2022-08-09T19:10:29.049Z,5.20
2022-08-09T19:13:18.417Z,3.77
2022-08-09T19:15:49.846Z,3.22
2022-08-09T19:18:33.524Z,4.40
2022-08-09T19:21:09.757Z,4.90
2022-08-09T19:24:39.488Z,4.10
2022-08-09T19:26:31.152Z,7.75
2022-08-09T19:29:01.764Z,2.97
2022-08-09T19:31:44.359Z,7.45
2022-08-09T19:34:21.302Z,6.82
2022-08-09T19:36:50.472Z,5.70
2022-08-09T19:39:17.137Z,6.57
2022-08-09T19:41:47.334Z,8.23
2022-08-09T19:44:17.644Z,4.63
2022-08-09T19:46:50.752Z,6.90
2022-08-09T19:50:07.978Z,4.95
2022-08-09T19:52:10.079Z,5.88
2022-08-09T19:54:42.836Z,4.10
2022-08-09T19:57:10.231Z,4.70
2022-08-09T19:59:58.619Z,3.92
2022-08-09T20:04:12.414Z,7.38
2022-08-09T20:05:16.634Z,2.63
2022-08-09T20:07:58.934Z,7.38
2022-08-09T20:10:36.566Z,3.92
2022-08-09T20:13:06.398Z,4.57
2022-08-09T20:16:37.772Z,2.20
2022-08-09T20:18:22.524Z,5.55
2022-08-09T20:20:51.330Z,6.93
2022-08-09T20:23:23.636Z,4.53
2022-08-09T20:25:52.207Z,3.40
2022-08-09T20:28:27.716Z,2.47
2022-08-09T20:31:02.579Z,3.67
2022-08-09T20:33:39.118Z,4.38
2022-08-09T20:36:08.754Z,3.65
2022-08-09T20:38:52.778Z,2.60
2022-08-09T20:41:32.209Z,2.70
2022-08-09T20:44:03.229Z,4.05
2022-08-09T20:46:42.649Z,3.38
2022-08-09T20:49:12.430Z,3.95
2022-08-09T20:51:40.875Z,3.92
2022-08-09T20:54:12.631Z,3.53
2022-08-09T20:56:43.968Z,3.63
2022-08-09T20:59:17.252Z,4.57
2022-08-09T21:01:50.660Z,4.30
2022-08-09T21:05:53.510Z,2.38
2022-08-09T21:07:12.565Z,3.47
2022-08-09T21:09:56.670Z,3.75
2022-08-09T21:15:16.197Z,5.43
2022-08-09T21:18:24.061Z,3.40
2022-08-09T21:20:31.404Z,3.85
2022-08-09T21:22:59.326Z,4.03
2022-08-09T21:25:44.234Z,4.18
2022-08-09T21:28:34.656Z,4.88
2022-08-09T21:31:16.529Z,6.30
2022-08-09T21:33:50.523Z,6.88
2022-08-09T21:36:19.115Z,6.20
2022-08-09T21:38:45.746Z,3.67
2022-08-09T21:41:53.441Z,5.40
2022-08-09T21:46:36.704Z,2.95
2022-08-09T21:49:03.834Z,6.65
2022-08-09T21:51:36.340Z,5.63
2022-08-09T21:54:10.645Z,3.60
2022-08-09T21:56:44.627Z,3.10
2022-08-09T21:59:23.269Z,3.90
2022-08-09T22:02:00.247Z,2.58
2022-08-09T22:04:55.311Z,3.13
2022-08-09T22:07:35.256Z,5.75
2022-08-09T22:10:03.482Z,5.63
2022-08-09T22:12:31.369Z,5.43
2022-08-09T22:14:58.740Z,5.60
2022-08-09T22:17:25.798Z,6.80
2022-08-09T22:19:59.811Z,5.25
2022-08-09T22:22:28.463Z,4.35
2022-08-09T22:26:05.335Z,6.63
2022-08-09T22:30:09.851Z,6.35
2022-08-09T22:32:37.220Z,4.20
2022-08-09T22:35:06.658Z,5.35
2022-08-09T22:37:39.953Z,3.47
2022-08-09T22:40:07.876Z,3.72
2022-08-09T22:42:34.538Z,4.38
2022-08-09T22:48:11.601Z,4.88
2022-08-09T22:50:34.784Z,7.88
2022-08-09T22:53:03.321Z,6.47
2022-08-09T22:56:06.455Z,6.18
2022-08-09T22:58:20.258Z,3.58
2022-08-09T23:00:57.976Z,6.28
2022-08-09T23:04:02.912Z,4.45
2022-08-09T23:08:44.360Z,4.38
2022-08-09T23:11:20.407Z,4.45
2022-08-09T23:13:50.185Z,3.47
2022-08-09T23:16:19.058Z,4.15
2022-08-09T23:18:45.740Z,5.40
2022-08-09T23:21:14.710Z,3.08
2022-08-09T23:24:06.627Z,4.97
2022-08-09T23:26:34.881Z,5.60
2022-08-09T23:29:01.558Z,5.28
2022-08-09T23:31:28.195Z,3.67
2022-08-09T23:33:54.853Z,6.13
2022-08-09T23:36:21.441Z,4.25
2022-08-09T23:38:48.457Z,4.00
2022-08-09T23:41:28.802Z,3.63
2022-08-09T23:43:58.743Z,3.42
2022-08-09T23:46:25.637Z,3.45
2022-08-09T23:48:52.273Z,6.32
2022-08-09T23:51:19.130Z,3.53
2022-08-09T23:53:45.801Z,4.25
2022-08-09T23:56:16.394Z,4.05
2022-08-09T23:58:44.810Z,5.43
